createdAt,value
2022-09-28T00:01:37.177Z,13.63
2022-09-28T00:04:46.137Z,16.83
2022-09-28T00:08:02.499Z,15.45
2022-09-28T00:11:16.861Z,16.20
2022-09-28T00:14:26.697Z,17.60
2022-09-28T00:17:32.552Z,18.25
2022-09-28T00:20:39.010Z,18.20
2022-09-28T00:24:02.353Z,18.40
2022-09-28T00:27:07.086Z,18.73
2022-09-28T00:30:11.153Z,18.25
2022-09-28T00:33:15.299Z,16.92
2022-09-28T00:36:19.161Z,18.17
2022-09-28T00:39:23.377Z,17.48
2022-09-28T00:42:28.256Z,18.13
2022-09-28T00:45:33.767Z,17.50
2022-09-28T00:49:05.412Z,16.02
2022-09-28T00:52:27.926Z,16.70
2022-09-28T00:56:08.326Z,16.00
2022-09-28T00:59:12.161Z,15.88
2022-09-28T01:02:18.165Z,20.17
2022-09-28T01:05:23.812Z,18.65
2022-09-28T01:08:29.048Z,18.67
2022-09-28T01:11:34.890Z,16.63
2022-09-28T01:14:41.622Z,17.33
2022-09-28T01:18:13.655Z,15.35
2022-09-28T01:21:25.907Z,16.35
2022-09-28T01:24:31.030Z,16.10
2022-09-28T01:27:48.337Z,16.75
2022-09-28T01:31:15.494Z,18.60
2022-09-28T01:34:35.375Z,17.20
2022-09-28T01:37:41.328Z,15.75
2022-09-28T01:40:46.916Z,12.33
2022-09-28T01:43:57.394Z,11.18
2022-09-28T01:47:05.019Z,12.35
2022-09-28T01:50:20.795Z,12.43
2022-09-28T01:53:29.745Z,12.18
2022-09-28T01:56:46.678Z,11.95
2022-09-28T02:00:11.414Z,14.25
2022-09-28T02:03:35.777Z,15.38
2022-09-28T02:06:49.926Z,13.82
2022-09-28T02:09:59.527Z,15.32
2022-09-28T02:13:08.076Z,13.15
2022-09-28T02:16:17.992Z,12.50
2022-09-28T02:19:28.053Z,11.10
2022-09-28T02:22:44.044Z,11.13
2022-09-28T02:25:54.777Z,10.77
2022-09-28T02:28:58.656Z,10.65
2022-09-28T02:32:01.850Z,10.48
2022-09-28T02:35:05.866Z,9.57
2022-09-28T02:38:12.448Z,9.23
2022-09-28T02:41:22.236Z,8.35
2022-09-28T02:44:51.918Z,8.60
2022-09-28T02:48:36.132Z,8.80
2022-09-28T02:52:05.339Z,7.97
2022-09-28T02:55:18.780Z,7.43
2022-09-28T02:59:01.007Z,6.93
2022-09-28T03:02:32.716Z,7.00
2022-09-28T03:05:53.777Z,6.57
2022-09-28T03:09:28.137Z,7.75
2022-09-28T03:12:34.014Z,7.53
2022-09-28T03:15:39.931Z,6.68
2022-09-28T03:18:44.860Z,6.55
2022-09-28T03:21:49.579Z,5.80
2022-09-28T03:24:58.449Z,7.00
2022-09-28T03:28:04.896Z,6.18
2022-09-28T03:31:14.056Z,7.50
2022-09-28T03:34:20.731Z,6.90
2022-09-28T03:37:24.672Z,7.10
2022-09-28T03:40:28.147Z,7.43
2022-09-28T03:43:32.180Z,5.95
2022-09-28T03:46:41.291Z,5.55
2022-09-28T03:49:46.357Z,5.13
2022-09-28T03:52:50.912Z,5.00
2022-09-28T03:55:54.786Z,4.60
2022-09-28T03:58:58.307Z,2.60
2022-09-28T04:02:02.603Z,2.90
2022-09-28T04:05:07.510Z,1.40
2022-09-28T04:08:11.000Z,0.85
2022-09-28T04:11:16.220Z,0.60
2022-09-28T04:14:19.742Z,0.85
2022-09-28T04:17:23.986Z,0.80
2022-09-28T04:20:27.448Z,0.63
2022-09-28T04:23:40.999Z,0.57
2022-09-28T04:26:44.743Z,0.68
2022-09-28T04:29:48.921Z,0.60
2022-09-28T04:32:54.984Z,0.90
2022-09-28T04:36:05.715Z,0.70
2022-09-28T04:39:09.377Z,0.70
2022-09-28T04:42:18.553Z,0.60
2022-09-28T04:45:29.326Z,0.70
2022-09-28T04:48:39.419Z,0.68
2022-09-28T04:52:06.746Z,0.60
2022-09-28T04:55:15.062Z,0.80
2022-09-28T04:58:20.524Z,0.60
2022-09-28T05:01:24.713Z,0.57
2022-09-28T05:04:31.774Z,0.50
2022-09-28T05:08:04.272Z,0.60
2022-09-28T05:11:16.486Z,0.80
2022-09-28T05:14:23.509Z,0.60
2022-09-28T05:17:27.712Z,0.50
2022-09-28T05:20:54.756Z,0.50
2022-09-28T05:23:59.290Z,0.88
2022-09-28T05:27:02.756Z,0.70
2022-09-28T05:30:07.820Z,0.60
2022-09-28T05:33:41.357Z,0.73
2022-09-28T05:36:49.737Z,0.50
2022-09-28T05:39:54.355Z,0.50
2022-09-28T05:43:01.965Z,0.55
2022-09-28T05:46:06.710Z,0.40
2022-09-28T05:49:14.279Z,0.65
2022-09-28T05:52:17.702Z,0.68
2022-09-28T05:55:24.040Z,0.50
2022-09-28T05:58:29.251Z,1.20
2022-09-28T06:01:35.597Z,0.65
2022-09-28T06:04:40.526Z,0.50
2022-09-28T06:07:44.497Z,0.60
2022-09-28T06:10:48.525Z,0.50
2022-09-28T06:13:56.081Z,0.55
2022-09-28T06:17:00.203Z,0.77
2022-09-28T06:20:03.702Z,0.50
2022-09-28T06:23:25.570Z,0.60
2022-09-28T06:26:32.204Z,0.60
2022-09-28T06:29:37.463Z,0.50
2022-09-28T06:32:42.831Z,0.57
2022-09-28T06:35:47.798Z,0.50
2022-09-28T06:38:53.516Z,0.70
2022-09-28T06:41:57.978Z,0.50
2022-09-28T06:45:16.394Z,0.60
2022-09-28T06:48:45.560Z,0.50
2022-09-28T06:51:55.124Z,0.55
2022-09-28T06:55:13.238Z,0.50
2022-09-28T06:58:22.597Z,0.68
2022-09-28T07:01:28.011Z,0.68
2022-09-28T07:04:45.483Z,0.40
2022-09-28T07:07:50.320Z,1.05
2022-09-28T07:11:17.246Z,0.55
2022-09-28T07:14:44.621Z,0.55
2022-09-28T07:18:03.471Z,0.82
2022-09-28T07:21:16.001Z,0.60
2022-09-28T07:24:26.363Z,0.80
2022-09-28T07:27:58.294Z,1.02
2022-09-28T07:31:29.282Z,1.00
2022-09-28T07:34:58.802Z,0.80
2022-09-28T07:38:22.726Z,0.80
2022-09-28T07:41:34.056Z,0.60
2022-09-28T07:44:43.698Z,0.60
2022-09-28T07:47:49.248Z,0.70
2022-09-28T07:51:13.037Z,0.55
2022-09-28T07:54:22.065Z,0.60
2022-09-28T07:58:02.013Z,0.60
2022-09-28T08:01:23.070Z,0.57
2022-09-28T08:04:29.606Z,0.50
2022-09-28T08:07:35.993Z,0.57
2022-09-28T08:10:47.131Z,1.05
2022-09-28T08:13:58.872Z,0.65
2022-09-28T08:17:21.578Z,0.65
2022-09-28T08:20:51.656Z,0.60
2022-09-28T08:23:56.571Z,0.65
2022-09-28T08:27:01.155Z,1.02
2022-09-28T08:33:28.943Z,1.20
2022-09-28T08:36:53.693Z,0.60
2022-09-28T08:40:27.231Z,0.65
2022-09-28T08:44:15.701Z,0.40
2022-09-28T08:48:22.033Z,0.60
2022-09-28T08:51:50.302Z,0.60
2022-09-28T08:55:33.123Z,0.60
2022-09-28T08:58:45.557Z,0.57
2022-09-28T09:01:58.950Z,0.40
2022-09-28T09:05:14.952Z,0.70
2022-09-28T09:09:02.399Z,0.60
2022-09-28T09:12:26.801Z,0.90
2022-09-28T09:16:46.731Z,0.60
2022-09-28T09:20:36.172Z,0.50
2022-09-28T09:23:58.508Z,0.65
2022-09-28T09:27:30.346Z,0.52
2022-09-28T09:30:51.457Z,1.17
2022-09-28T09:34:41.357Z,0.55
2022-09-28T09:38:42.918Z,0.50
2022-09-28T09:42:37.557Z,0.70
2022-09-28T09:46:44.233Z,0.65
2022-09-28T09:50:31.252Z,0.50
2022-09-28T09:53:55.350Z,0.60
2022-09-28T09:57:11.995Z,0.60
2022-09-28T10:00:42.796Z,0.60
2022-09-28T10:04:00.834Z,0.50
2022-09-28T10:07:11.923Z,0.50
2022-09-28T10:10:37.745Z,0.63
2022-09-28T10:13:46.675Z,0.50
2022-09-28T10:17:19.056Z,0.50
2022-09-28T10:20:48.369Z,0.50
2022-09-28T10:24:22.101Z,0.70
2022-09-28T10:27:28.213Z,0.50
2022-09-28T10:30:35.983Z,0.98
2022-09-28T10:33:40.376Z,0.70
2022-09-28T10:36:49.171Z,1.00
2022-09-28T10:39:56.971Z,0.50
2022-09-28T10:43:06.168Z,0.52
2022-09-28T10:46:24.505Z,0.90
2022-09-28T10:49:46.606Z,0.50
2022-09-28T10:52:54.756Z,0.65
2022-09-28T10:56:30.794Z,0.40
2022-09-28T10:59:42.786Z,0.80
2022-09-28T11:03:05.969Z,0.60
2022-09-28T11:06:10.819Z,0.55
2022-09-28T11:09:29.740Z,0.60
2022-09-28T11:12:46.478Z,0.80
2022-09-28T11:15:50.856Z,0.90
2022-09-28T11:19:30.747Z,0.60
2022-09-28T11:22:34.330Z,0.60
2022-09-28T11:25:43.552Z,2.00
2022-09-28T11:28:59.550Z,0.68
2022-09-28T11:32:16.219Z,0.50
2022-09-28T11:36:26.623Z,0.73
2022-09-28T11:39:43.769Z,1.30
2022-09-28T11:47:26.906Z,0.80
2022-09-28T11:50:48.955Z,1.40
2022-09-28T11:53:56.136Z,1.15
2022-09-28T11:57:07.191Z,1.00
2022-09-28T12:00:25.298Z,0.88
2022-09-28T12:03:40.618Z,1.10
2022-09-28T12:07:00.179Z,1.30
2022-09-28T12:10:34.162Z,0.90
2022-09-28T12:17:43.268Z,0.80
2022-09-28T12:21:04.987Z,0.90
2022-09-28T12:24:34.579Z,2.67
2022-09-28T12:27:58.828Z,0.88
2022-09-28T12:31:31.202Z,0.70
2022-09-28T12:34:35.000Z,0.98
2022-09-28T12:37:54.503Z,0.90
2022-09-28T12:41:20.007Z,0.60
2022-09-28T12:58:44.362Z,1.20
2022-09-28T13:02:37.585Z,2.42
2022-09-28T13:06:18.598Z,1.02
2022-09-28T13:09:28.743Z,0.82
2022-09-28T13:12:48.489Z,0.90
2022-09-28T13:16:02.104Z,1.42
2022-09-28T13:19:16.519Z,1.10
2022-09-28T13:22:43.488Z,1.33
2022-09-28T13:25:56.885Z,1.58
2022-09-28T13:29:13.219Z,1.00
2022-09-28T13:32:22.353Z,1.10
2022-09-28T13:35:26.513Z,1.20
2022-09-28T13:38:32.477Z,1.20
2022-09-28T13:41:38.982Z,0.98
2022-09-28T13:45:06.869Z,0.90
2022-09-28T13:48:47.991Z,0.90
2022-09-28T13:59:30.597Z,3.72
2022-09-28T14:02:46.422Z,4.38
2022-09-28T14:06:07.268Z,5.25
2022-09-28T14:09:24.246Z,3.90
2022-09-28T14:12:36.994Z,3.88
2022-09-28T14:15:44.755Z,6.32
2022-09-28T14:19:18.153Z,6.47
2022-09-28T14:22:34.273Z,7.18
2022-09-28T14:25:48.811Z,5.35
2022-09-28T14:29:17.198Z,3.30
2022-09-28T14:32:27.988Z,4.55
2022-09-28T14:35:42.206Z,5.80
2022-09-28T14:39:07.863Z,6.80
2022-09-28T14:42:17.858Z,5.03
2022-09-28T14:45:36.486Z,6.38
2022-09-28T14:48:55.245Z,5.20
2022-09-28T14:52:03.872Z,6.97
2022-09-28T14:55:20.593Z,5.65
2022-09-28T15:02:17.150Z,8.65
2022-09-28T15:05:29.027Z,7.35
2022-09-28T15:08:56.199Z,9.15
2022-09-28T15:12:15.792Z,8.95
2022-09-28T15:15:50.482Z,6.07
2022-09-28T15:19:03.869Z,4.80
2022-09-28T15:22:17.264Z,6.18
2022-09-28T15:25:24.306Z,8.73
2022-09-28T15:28:27.833Z,8.43
2022-09-28T15:31:37.779Z,8.23
2022-09-28T15:34:55.726Z,7.55
2022-09-28T15:38:00.961Z,6.90
2022-09-28T15:41:08.183Z,5.40
2022-09-28T15:47:26.743Z,6.65
2022-09-28T15:50:34.638Z,12.07
2022-09-28T15:54:05.656Z,12.07
2022-09-28T15:57:31.916Z,10.95
2022-09-28T16:00:37.204Z,12.48
2022-09-28T16:03:42.515Z,10.35
2022-09-28T16:07:12.842Z,9.88
2022-09-28T16:10:17.879Z,8.10
2022-09-28T16:13:25.068Z,10.00
2022-09-28T16:16:35.661Z,10.50
2022-09-28T16:19:40.995Z,11.80
2022-09-28T16:22:46.269Z,10.43
2022-09-28T16:25:55.363Z,7.53
2022-09-28T16:29:00.500Z,4.00
2022-09-28T16:32:26.914Z,2.10
2022-09-28T16:35:36.784Z,1.67
2022-09-28T16:38:45.720Z,2.70
2022-09-28T16:41:56.596Z,2.08
2022-09-28T16:45:04.904Z,1.55
2022-09-28T16:48:16.189Z,1.90
2022-09-28T16:51:24.318Z,0.80
2022-09-28T16:54:49.717Z,0.75
2022-09-28T16:57:55.471Z,0.63
2022-09-28T17:01:02.815Z,1.00
2022-09-28T17:04:09.341Z,0.90
2022-09-28T17:07:17.243Z,0.77
2022-09-28T17:11:09.852Z,0.90
2022-09-28T17:14:11.464Z,0.82
2022-09-28T17:17:17.543Z,1.20
2022-09-28T17:20:29.624Z,0.98
2022-09-28T17:23:35.374Z,1.20
2022-09-28T17:26:41.132Z,1.00
2022-09-28T17:29:46.581Z,1.17
2022-09-28T17:32:52.952Z,1.20
2022-09-28T17:36:05.910Z,1.58
2022-09-28T17:39:21.049Z,1.50
2022-09-28T17:42:25.940Z,1.30
2022-09-28T17:45:32.824Z,1.75
2022-09-28T17:48:37.422Z,1.23
2022-09-28T17:51:42.603Z,1.65
2022-09-28T17:54:47.155Z,1.55
2022-09-28T17:57:52.918Z,1.58
2022-09-28T18:00:58.570Z,1.75
2022-09-28T18:04:13.227Z,2.08
2022-09-28T18:07:24.312Z,2.05
2022-09-28T18:10:31.188Z,1.63
2022-09-28T18:13:36.305Z,2.00
2022-09-28T18:16:42.363Z,2.00
2022-09-28T18:19:47.524Z,1.50
2022-09-28T18:22:52.246Z,1.55
2022-09-28T18:25:56.435Z,1.60
2022-09-28T18:29:02.656Z,1.60
2022-09-28T18:32:08.348Z,1.90
2022-09-28T18:35:13.963Z,1.48
2022-09-28T18:38:19.161Z,1.88
2022-09-28T18:41:25.892Z,2.25
2022-09-28T18:44:31.424Z,3.22
2022-09-28T18:47:36.268Z,2.75
2022-09-28T18:50:43.456Z,2.80
2022-09-28T18:56:57.594Z,2.90
2022-09-28T19:00:03.951Z,2.65
2022-09-28T19:03:12.335Z,2.55
2022-09-28T19:06:19.998Z,2.60
2022-09-28T19:09:28.427Z,1.77
2022-09-28T19:15:39.699Z,2.17
2022-09-28T19:18:45.016Z,1.33
2022-09-28T19:21:51.470Z,2.33
2022-09-28T19:24:58.120Z,1.10
2022-09-28T19:28:04.486Z,1.30
2022-09-28T19:31:10.857Z,1.40
2022-09-28T19:34:16.276Z,1.20
2022-09-28T19:37:20.729Z,0.90
2022-09-28T19:40:26.563Z,0.93
2022-09-28T19:43:32.545Z,1.10
2022-09-28T19:46:40.779Z,1.00
2022-09-28T19:49:46.613Z,0.88
2022-09-28T19:52:54.623Z,0.70
2022-09-28T19:59:08.487Z,0.73
2022-09-28T20:02:15.597Z,0.70
2022-09-28T20:05:20.925Z,0.80
2022-09-28T20:08:27.810Z,0.80
2022-09-28T20:11:33.434Z,0.80
2022-09-28T20:14:40.393Z,0.80
2022-09-28T20:17:45.985Z,0.73
2022-09-28T20:21:06.493Z,0.55
2022-09-28T20:24:13.980Z,0.43
2022-09-28T20:27:24.243Z,0.80
2022-09-28T20:30:32.353Z,0.82
2022-09-28T20:33:40.464Z,0.80
2022-09-28T20:36:46.323Z,0.57
2022-09-28T20:39:53.108Z,0.70
2022-09-28T20:42:58.959Z,0.70
2022-09-28T20:46:06.714Z,0.60
2022-09-28T20:52:18.680Z,0.50
2022-09-28T20:55:25.770Z,0.50
2022-09-28T20:58:33.427Z,0.43
2022-09-28T21:01:41.320Z,0.40
2022-09-28T21:04:48.972Z,0.50
2022-09-28T21:07:55.548Z,0.50
2022-09-28T21:11:03.455Z,0.40
2022-09-28T21:17:18.336Z,0.73
2022-09-28T21:20:25.530Z,0.47
2022-09-28T21:23:34.866Z,0.40
2022-09-28T21:26:43.080Z,0.50
2022-09-28T21:29:51.908Z,0.38
2022-09-28T21:32:58.496Z,0.35
2022-09-28T21:36:08.540Z,0.47
2022-09-28T21:39:19.416Z,0.90
2022-09-28T21:42:28.135Z,0.60
2022-09-28T21:45:35.432Z,0.82
2022-09-28T21:48:42.418Z,0.55
2022-09-28T21:51:50.931Z,0.50
2022-09-28T21:55:00.789Z,0.70
2022-09-28T21:58:08.600Z,0.73
2022-09-28T22:01:19.473Z,0.63
2022-09-28T22:04:27.672Z,0.60
2022-09-28T22:07:37.730Z,0.73
2022-09-28T22:10:46.863Z,0.50
2022-09-28T22:13:58.156Z,0.70
2022-09-28T22:17:06.357Z,0.55
2022-09-28T22:20:15.005Z,0.65
2022-09-28T22:23:25.753Z,0.60
2022-09-28T22:26:34.993Z,0.52
2022-09-28T22:29:44.332Z,0.50
2022-09-28T22:32:53.975Z,0.40
2022-09-28T22:36:03.157Z,0.40
2022-09-28T22:39:07.839Z,0.70
2022-09-28T22:42:11.543Z,0.75
2022-09-28T22:45:15.412Z,0.50
2022-09-28T22:48:19.591Z,0.50
2022-09-28T22:56:32.720Z,0.63
2022-09-28T22:59:39.251Z,0.70
2022-09-28T23:02:42.925Z,0.50
2022-09-28T23:05:56.586Z,0.40
2022-09-28T23:09:00.517Z,0.80
2022-09-28T23:12:04.891Z,0.50
2022-09-28T23:15:11.670Z,0.50
2022-09-28T23:18:19.184Z,0.80
2022-09-28T23:21:29.840Z,0.63
2022-09-28T23:24:39.383Z,1.38
2022-09-28T23:27:51.895Z,0.60
2022-09-28T23:31:10.610Z,0.60
2022-09-28T23:34:19.582Z,0.40
2022-09-28T23:37:28.822Z,0.50
2022-09-28T23:40:37.178Z,0.82
2022-09-28T23:43:45.763Z,1.00
2022-09-28T23:46:55.356Z,0.80
2022-09-28T23:50:05.073Z,0.60
2022-09-28T23:53:16.643Z,0.70
2022-09-28T23:56:26.290Z,1.20
2022-09-28T23:59:37.780Z,1.30
